Time;durP1;ratioP1;P1;durP2;ratioP2;P2;SDS_P1;SDS_P2;PMS_P1;PMS_P2;Temp;Humidity;BMP_temperature;BMP_pressure;BME280_temperature;BME280_humidity;BME280_pressure;Samples;Min_cycle;Max_cycle;Signal;HPM_P1;HPM_P2
2023/05/01 00:01:54;;;;;;;1.15;0.30;;;;;;;19.63;36.05;101622.06;16116070;19;129453;-38
2023/05/01 00:07:16;;;;;;;0.68;0.38;;;;;;;19.62;35.75;101617.59;16111170;19;130326;-37
2023/05/01 00:12:38;;;;;;;2.83;0.50;;;;;;;19.59;35.94;101613.34;16103450;19;130204;-37
2023/05/01 00:18:00;;;;;;;1.17;0.50;;;;;;;19.57;35.89;101590.53;16108681;19;129326;-38
2023/05/01 00:23:22;;;;;;;1.20;0.40;;;;;;;19.56;36.04;101594.41;16112087;19;131638;-38
2023/05/01 00:28:44;;;;;;;0.88;0.40;;;;;;;19.54;35.88;101588.25;16112940;19;129713;-38
2023/05/01 00:34:06;;;;;;;2.05;0.50;;;;;;;19.53;36.14;101578.22;16106094;19;130279;-37
2023/05/01 00:39:28;;;;;;;1.20;0.40;;;;;;;19.53;35.89;101573.50;16112729;19;129168;-38
2023/05/01 00:44:50;;;;;;;2.05;0.40;;;;;;;19.52;36.11;101565.44;16111751;19;131724;-38
2023/05/01 00:50:12;;;;;;;0.88;0.40;;;;;;;19.51;36.01;101558.19;16108857;19;129690;-37
2023/05/01 00:55:34;;;;;;;0.80;0.30;;;;;;;19.49;35.95;101550.09;16111687;19;130158;-37
2023/05/01 01:00:57;;;;;;;0.93;0.50;;;;;;;19.50;35.97;101539.84;16104760;19;130709;-38
2023/05/01 01:06:43;;;;;;;0.40;0.22;;;;;;;19.50;36.14;101517.63;16106106;19;130232;-37
2023/05/01 01:12:18;;;;;;;0.20;0.20;;;;;;;19.49;35.70;101530.69;16109069;19;131177;-37
2023/05/01 01:18:04;;;;;;;0.77;0.30;;;;;;;19.48;35.78;101520.66;16108100;19;130152;-38
2023/05/01 01:24:00;;;;;;;0.50;0.30;;;;;;;19.45;35.86;101510.03;16121168;19;130607;-37
2023/05/01 01:29:37;;;;;;;0.40;0.30;;;;;;;19.44;36.16;101496.41;16122167;19;130920;-37
2023/05/01 01:35:03;;;;;;;1.05;0.47;;;;;;;19.44;35.71;101496.41;16126678;19;130110;-50
2023/05/01 01:40:34;;;;;;;0.70;0.40;;;;;;;19.44;35.90;101485.31;16127244;19;130652;-49
2023/05/01 01:46:00;;;;;;;2.13;0.30;;;;;;;19.43;35.67;101478.06;16119040;19;129966;-49
2023/05/01 01:51:25;;;;;;;0.88;0.40;;;;;;;19.41;36.18;101480.22;16128435;19;129717;-37
2023/05/01 01:56:49;;;;;;;1.07;0.40;;;;;;;19.41;36.20;101478.28;16124300;19;131485;-49
2023/05/01 02:02:14;;;;;;;2.15;0.40;;;;;;;19.40;35.69;101475.75;16121192;19;130708;-38
2023/05/01 02:07:39;;;;;;;0.80;0.38;;;;;;;19.40;36.01;101467.44;16122877;19;129771;-38
2023/05/01 02:13:02;;;;;;;0.50;0.30;;;;;;;19.38;36.08;101464.91;16119892;19;129888;-37
2023/05/01 02:18:27;;;;;;;1.08;0.35;;;;;;;19.37;35.76;101464.06;16121293;19;130795;-37
2023/05/01 02:23:49;;;;;;;0.73;0.40;;;;;;;19.35;36.19;101455.13;16118509;19;129884;-38
2023/05/01 02:29:11;;;;;;;0.60;0.20;;;;;;;19.33;36.18;101451.72;16110745;19;130767;-38
2023/05/01 02:34:34;;;;;;;0.65;0.40;;;;;;;19.33;35.75;101448.94;16115837;19;130577;-38
2023/05/01 02:39:57;;;;;;;2.17;0.43;;;;;;;19.33;36.10;101448.13;16110399;19;129736;-38
2023/05/01 02:45:22;;;;;;;0.93;0.40;;;;;;;19.32;36.12;101438.09;16115155;19;130831;-38
2023/05/01 02:50:46;;;;;;;0.63;0.45;;;;;;;19.31;35.69;101436.41;16116695;19;129336;-38
2023/05/01 02:56:08;;;;;;;0.70;0.40;;;;;;;19.29;36.00;101433.88;16115236;19;130941;-38
2023/05/01 03:01:30;;;;;;;1.05;0.40;;;;;;;19.29;35.94;101416.38;16114591;19;130013;-39
2023/05/01 03:06:52;;;;;;;0.82;0.68;;;;;;;19.29;36.24;101420.03;16117513;19;129988;-37
2023/05/01 03:12:14;;;;;;;0.60;0.30;;;;;;;19.28;35.79;101412.78;16112439;19;131180;-38
2023/05/01 03:17:36;;;;;;;0.30;0.30;;;;;;;19.28;35.96;101410.00;16111979;19;130980;-37
2023/05/01 03:22:59;;;;;;;0.50;0.40;;;;;;;19.25;36.05;101404.94;16114425;19;129396;-39
2023/05/01 03:28:22;;;;;;;1.10;0.40;;;;;;;19.24;36.07;101400.47;16114743;19;129933;-37
2023/05/01 03:33:44;;;;;;;1.73;0.50;;;;;;;19.24;36.32;101403.22;16115207;19;131704;-38
2023/05/01 03:39:07;;;;;;;1.27;0.40;;;;;;;19.24;36.34;101396.84;16113088;19;130974;-38
2023/05/01 03:44:29;;;;;;;0.25;0.25;;;;;;;19.23;36.32;101384.91;16116938;19;131127;-37
2023/05/01 03:49:51;;;;;;;0.55;0.30;;;;;;;19.23;35.82;101387.66;16115989;19;130226;-38
2023/05/01 03:55:13;;;;;;;1.75;0.40;;;;;;;19.22;35.89;101385.97;16115178;19;131452;-38
2023/05/01 04:00:36;;;;;;;0.47;0.38;;;;;;;19.21;36.32;101381.50;16111255;19;130052;-38
2023/05/01 04:05:58;;;;;;;0.60;0.30;;;;;;;19.20;35.93;101383.41;16115496;19;130091;-38
2023/05/01 04:11:20;;;;;;;1.02;0.30;;;;;;;19.21;36.23;101375.97;16111298;19;130027;-38
2023/05/01 04:16:42;;;;;;;0.57;0.30;;;;;;;19.19;36.14;101378.13;16109699;19;131214;-38
2023/05/01 04:22:04;;;;;;;0.43;0.30;;;;;;;19.18;36.28;101376.44;16110656;19;131661;-37
2023/05/01 04:27:26;;;;;;;0.90;0.28;;;;;;;19.17;36.29;101371.97;16112437;19;129763;-38
2023/05/01 04:32:48;;;;;;;1.10;0.30;;;;;;;19.17;36.08;101371.97;16111045;19;129499;-38
2023/05/01 04:38:10;;;;;;;1.85;0.22;;;;;;;19.17;36.37;101371.97;16111930;19;130141;-38
2023/05/01 04:43:32;;;;;;;0.63;0.40;;;;;;;19.15;36.16;101374.97;16112633;19;130584;-37
2023/05/01 04:48:54;;;;;;;0.95;0.40;;;;;;;19.15;36.45;101365.81;16111957;19;131769;-38
2023/05/01 04:54:16;;;;;;;0.20;0.20;;;;;;;19.14;35.96;101364.13;16109013;19;131445;-37
2023/05/01 04:59:38;;;;;;;0.28;0.20;;;;;;;19.14;35.93;101358.56;16107318;19;129930;-37
2023/05/01 05:05:00;;;;;;;0.47;0.20;;;;;;;19.12;36.25;101369.06;16107878;19;130987;-42
2023/05/01 05:10:23;;;;;;;0.93;0.30;;;;;;;19.12;36.17;101378.25;16105922;19;129582;-38
2023/05/01 05:15:45;;;;;;;0.50;0.25;;;;;;;19.21;36.37;101381.50;16105445;19;130311;-38
2023/05/01 05:21:09;;;;;;;0.20;0.10;;;;;;;19.32;36.06;101375.13;16109046;19;130644;-38
2023/05/01 05:26:31;;;;;;;0.08;0.00;;;;;;;19.43;35.88;101378.19;16102460;19;131183;-38
2023/05/01 05:31:52;;;;;;;0.40;0.10;;;;;;;19.50;35.79;101376.13;16104297;19;129997;-38
2023/05/01 05:37:15;;;;;;;1.05;0.25;;;;;;;19.52;35.84;101383.09;16107289;19;129599;-38
2023/05/01 05:42:37;;;;;;;0.35;0.15;;;;;;;19.52;36.15;101374.78;16105512;19;130303;-38
2023/05/01 05:47:58;;;;;;;0.10;0.10;;;;;;;19.52;35.95;101374.78;16108538;19;130321;-38
2023/05/01 05:53:21;;;;;;;0.40;0.20;;;;;;;19.50;35.95;101373.34;16104510;19;129387;-38
2023/05/01 05:58:46;;;;;;;0.22;0.10;;;;;;;19.47;35.99;101379.38;16105041;19;132037;-38
2023/05/01 06:04:08;;;;;;;0.40;0.20;;;;;;;19.45;36.32;101381.53;16110609;19;130781;-38
2023/05/01 06:09:29;;;;;;;0.10;0.10;;;;;;;19.42;36.08;101376.47;16122046;19;130410;-39
2023/05/01 06:14:51;;;;;;;0.20;0.10;;;;;;;19.40;35.96;101384.19;16121275;19;129489;-38
2023/05/01 06:20:13;;;;;;;0.55;0.20;;;;;;;19.37;35.97;101385.53;16119392;19;130623;-38
2023/05/01 06:25:36;;;;;;;0.10;0.10;;;;;;;19.35;36.29;101382.16;16117513;19;131771;-38
2023/05/01 06:30:58;;;;;;;0.15;0.10;;;;;;;19.34;36.26;101380.47;16122416;19;129851;-38
2023/05/01 06:36:19;;;;;;;0.20;0.20;;;;;;;19.31;36.28;101387.34;16115533;19;129907;-38
2023/05/01 06:41:44;;;;;;;1.50;0.40;;;;;;;19.30;36.26;101385.66;16111986;19;130867;-38
2023/05/01 06:47:06;;;;;;;0.40;0.23;;;;;;;19.30;36.42;101382.88;16116180;19;130341;-39
2023/05/01 06:52:29;;;;;;;0.13;0.13;;;;;;;19.32;36.54;101383.44;16115123;19;134063;-38
2023/05/01 06:57:51;;;;;;;0.20;0.20;;;;;;;19.30;36.20;101382.88;16117446;19;129522;-38
2023/05/01 07:03:12;;;;;;;0.10;0.10;;;;;;;19.35;36.44;101377.44;16116746;19;129454;-38
2023/05/01 07:08:35;;;;;;;0.10;0.10;;;;;;;19.42;36.53;101384.81;16116559;19;129637;-38
2023/05/01 07:13:56;;;;;;;9.88;0.57;;;;;;;19.54;36.50;101382.88;16108898;19;129655;-38
2023/05/01 07:19:18;;;;;;;7.82;0.60;;;;;;;19.69;35.89;101377.66;16113780;19;131228;-37
2023/05/01 07:24:40;;;;;;;10.00;1.67;;;;;;;19.83;35.95;101386.59;16114006;19;129506;-39
2023/05/01 07:30:04;;;;;;;7.35;1.60;;;;;;;19.93;35.53;101391.53;16114527;19;129262;-41
2023/05/01 07:35:26;;;;;;;5.82;0.95;;;;;;;20.00;35.40;101388.63;16111513;19;131097;-39
2023/05/01 07:40:51;;;;;;;14.52;1.75;;;;;;;20.07;35.81;101385.72;16106029;19;130130;-38
2023/05/01 07:46:14;;;;;;;9.10;1.38;;;;;;;20.12;35.53;101383.06;16114468;19;131867;-38
2023/05/01 07:51:36;;;;;;;6.70;1.33;;;;;;;20.16;35.60;101387.06;16111368;19;129090;-39
2023/05/01 07:56:58;;;;;;;7.72;1.35;;;;;;;20.16;36.12;101381.50;16112658;19;131084;-40
2023/05/01 08:02:20;;;;;;;7.45;0.90;;;;;;;20.16;35.72;101380.63;16113799;19;130401;-39
2023/05/01 08:07:41;;;;;;;12.02;1.15;;;;;;;20.13;36.07;101384.75;16113418;19;129235;-39
2023/05/01 08:13:03;;;;;;;4.15;1.00;;;;;;;20.10;36.41;101393.56;16112743;19;129300;-39
2023/05/01 08:18:25;;;;;;;6.57;1.02;;;;;;;20.09;36.18;101389.09;16104842;19;130141;-39
2023/05/01 08:23:49;;;;;;;6.13;0.98;;;;;;;20.10;36.10;101390.78;16112241;19;130410;-39
2023/05/01 08:29:11;;;;;;;6.60;1.60;;;;;;;20.09;36.18;101387.19;16109165;19;129580;-39
2023/05/01 08:34:33;;;;;;;10.35;1.33;;;;;;;20.08;36.34;101395.75;16108770;19;129985;-39
2023/05/01 08:39:55;;;;;;;6.28;1.10;;;;;;;20.06;36.35;101392.41;16104290;19;130451;-39
2023/05/01 08:45:21;;;;;;;10.35;0.90;;;;;;;20.04;36.33;101400.13;16106938;19;130745;-41
2023/05/01 08:50:45;;;;;;;;;;;;;;;19.98;36.37;101402.75;16108905;19;129612;-39
2023/05/01 08:56:10;;;;;;;5.57;1.20;;;;;;;19.98;36.71;101399.97;16110338;19;130401;-41
2023/05/01 09:01:32;;;;;;;5.07;0.70;;;;;;;19.95;36.88;101403.22;16103912;19;131053;-39
2023/05/01 09:06:55;;;;;;;7.55;0.90;;;;;;;19.94;36.78;101404.31;16107552;19;130140;-39
2023/05/01 09:12:23;;;;;;;2.05;0.70;;;;;;;19.93;36.87;101410.97;16104455;19;130760;-39
2023/05/01 09:17:46;;;;;;;5.18;1.08;;;;;;;19.90;36.85;101410.59;16104099;19;129614;-39
2023/05/01 09:23:08;;;;;;;4.80;0.75;;;;;;;19.90;36.48;101411.47;16107456;19;130549;-39
2023/05/01 09:28:45;;;;;;;3.03;0.75;;;;;;;19.93;36.51;101422.09;16108238;19;129355;-38
2023/05/01 09:34:07;;;;;;;8.48;1.05;;;;;;;19.88;36.78;101421.97;16106050;19;130985;-38
2023/05/01 09:39:29;;;;;;;7.68;0.93;;;;;;;19.88;36.88;101413.63;16109800;19;131075;-39
2023/05/01 09:44:51;;;;;;;6.25;1.10;;;;;;;19.88;36.63;101421.97;16122159;19;129769;-43
2023/05/01 09:50:33;;;;;;;2.95;1.30;;;;;;;19.87;36.63;101417.50;16118744;19;129428;-43
2023/05/01 09:56:01;;;;;;;6.65;1.15;;;;;;;19.87;36.78;101414.72;16123115;19;130520;-40
2023/05/01 10:01:37;;;;;;;6.47;1.13;;;;;;;19.89;36.63;101423.66;16119977;19;131015;-38
2023/05/01 10:07:14;;;;;;;6.47;1.90;;;;;;;19.86;36.85;101421.34;16125792;19;131117;-40
2023/05/01 10:12:36;;;;;;;6.57;1.75;;;;;;;19.83;36.60;101430.16;16119767;19;130858;-40
2023/05/01 10:17:58;;;;;;;8.02;1.77;;;;;;;19.83;36.66;101422.69;16118767;19;131455;-39
2023/05/01 10:23:24;;;;;;;7.40;2.03;;;;;;;19.81;36.68;101418.47;16120014;19;130203;-39
2023/05/01 10:28:48;;;;;;;12.20;2.78;;;;;;;19.80;36.75;101434.28;16117908;19;129495;-38
2023/05/01 10:34:17;;;;;;;13.60;5.00;;;;;;;19.82;36.72;101436.78;16117415;19;130686;-41
2023/05/01 10:39:39;;;;;;;39.90;13.32;;;;;;;19.83;37.01;101441.25;16110304;19;130395;-39
2023/05/01 10:45:29;;;;;;;30.42;12.93;;;;;;;19.87;37.62;101444.44;16114443;19;129853;-38
2023/05/01 10:51:10;;;;;;;32.50;12.18;;;;;;;19.87;37.69;101445.25;16116311;19;131713;-38
2023/05/01 10:56:32;;;;;;;28.67;11.57;;;;;;;19.88;37.81;101446.13;16117768;19;129946;-42
2023/05/01 11:01:54;;;;;;;29.08;11.82;;;;;;;19.88;37.56;101446.94;16111019;19;131532;-41
2023/05/01 11:07:17;;;;;;;27.50;10.68;;;;;;;19.88;37.28;101444.19;16105618;19;129866;-42
2023/05/01 11:12:43;;;;;;;24.55;9.02;;;;;;;19.87;37.35;101436.94;16115310;19;130735;-46
2023/05/01 11:18:06;;;;;;;21.58;8.90;;;;;;;19.84;37.63;101445.72;16112865;19;131244;-41
2023/05/01 11:23:28;;;;;;;20.88;7.78;;;;;;;19.82;37.38;101447.91;16112868;19;131037;-41
2023/05/01 11:28:53;;;;;;;14.32;6.60;;;;;;;19.81;37.11;101462.91;16110725;19;129944;-47
2023/05/01 11:34:16;;;;;;;17.92;5.95;;;;;;;19.76;36.89;101458.03;16111773;19;129715;-40
2023/05/01 11:39:45;;;;;;;15.80;5.55;;;;;;;19.74;36.73;101462.16;16116965;19;129896;-42
2023/05/01 11:45:11;;;;;;;13.38;5.28;;;;;;;19.74;36.93;101464.94;16101368;19;131251;-42
2023/05/01 11:50:35;;;;;;;11.35;5.15;;;;;;;19.68;36.96;101464.81;16104360;19;129318;-42
2023/05/01 11:55:58;;;;;;;12.82;4.68;;;;;;;19.68;37.00;101469.50;16103264;19;130409;-41
2023/05/01 12:01:20;;;;;;;10.27;3.97;;;;;;;19.67;37.00;101471.47;16101158;19;130206;-43
2023/05/01 12:06:44;;;;;;;12.85;4.10;;;;;;;19.67;36.88;101468.69;16110484;19;129417;-41
2023/05/01 12:12:06;;;;;;;8.07;4.50;;;;;;;19.66;37.23;101475.31;16106119;19;130654;-38
2023/05/01 12:17:29;;;;;;;13.75;4.10;;;;;;;19.65;37.22;101475.53;16111014;19;130728;-40
2023/05/01 12:22:51;;;;;;;10.55;3.58;;;;;;;19.65;37.29;101465.31;16111295;19;130941;-40
2023/05/01 12:28:17;;;;;;;8.55;3.47;;;;;;;19.66;37.49;101464.22;16098485;19;134159;-39
2023/05/01 12:33:38;;;;;;;10.30;4.15;;;;;;;19.66;37.26;101461.44;16112648;19;129597;-38
2023/05/01 12:39:06;;;;;;;8.00;4.00;;;;;;;19.69;37.58;101458.16;16108820;19;130515;-38
2023/05/01 12:44:31;;;;;;;9.07;3.40;;;;;;;19.72;37.74;101456.00;16096669;19;130558;-38
2023/05/01 12:50:01;;;;;;;9.88;3.28;;;;;;;19.75;37.57;101448.06;16095277;19;129814;-38
2023/05/01 12:55:23;;;;;;;16.30;3.92;;;;;;;19.77;37.55;101447.81;16097048;19;129635;-38
2023/05/01 13:00:54;;;;;;;14.05;3.53;;;;;;;19.79;37.88;101440.91;16113932;19;130939;-40
2023/05/01 13:06:16;;;;;;;14.65;2.97;;;;;;;19.78;37.90;101435.63;16103886;19;130139;-39
2023/05/01 13:11:38;;;;;;;11.50;3.83;;;;;;;19.77;37.83;101445.03;16110170;19;130583;-39
2023/05/01 13:17:00;;;;;;;12.07;3.53;;;;;;;19.77;38.29;101440.31;16119317;19;131117;-38
2023/05/01 13:22:36;;;;;;;11.88;3.70;;;;;;;19.79;38.13;101431.75;16121540;19;131200;-39
2023/05/01 13:27:58;;;;;;;15.57;3.97;;;;;;;19.76;37.79;101433.06;16119738;19;130487;-38
2023/05/01 13:33:19;;;;;;;6.15;3.42;;;;;;;19.74;37.78;101434.41;16116647;19;129776;-39
2023/05/01 13:38:45;;;;;;;8.90;3.83;;;;;;;19.72;38.27;101447.66;16113354;19;130094;-38
2023/05/01 13:44:07;;;;;;;5.47;3.30;;;;;;;19.67;37.91;101456.72;16118094;19;130546;-38
2023/05/01 13:49:29;;;;;;;8.65;4.03;;;;;;;19.67;38.14;101457.59;16120325;19;135527;-38
2023/05/01 13:54:54;;;;;;;15.65;4.72;;;;;;;19.69;38.46;101457.34;16117907;19;130928;-38
2023/05/01 14:00:17;;;;;;;17.40;4.35;;;;;;;19.71;38.36;101457.06;16116285;19;129382;-38
2023/05/01 14:05:41;;;;;;;21.13;5.35;;;;;;;19.73;38.52;101449.34;16116424;19;130988;-38
2023/05/01 14:11:07;;;;;;;17.15;4.47;;;;;;;19.75;38.67;101452.75;16118667;19;129611;-37
2023/05/01 14:16:30;;;;;;;14.32;4.30;;;;;;;19.77;38.73;101456.13;16121550;19;135857;-38
2023/05/01 14:21:52;;;;;;;19.25;5.07;;;;;;;19.80;38.48;101450.09;16116575;19;130078;-38
2023/05/01 14:27:14;;;;;;;14.85;4.97;;;;;;;19.81;38.60;101449.03;16114835;19;130260;-39
2023/05/01 14:32:39;;;;;;;15.10;4.25;;;;;;;19.82;38.58;101446.00;16111908;19;130044;-40
2023/05/01 14:38:11;;;;;;;;;;;;;;;19.80;38.17;101439.00;16111808;19;130016;-42
2023/05/01 14:43:34;;;;;;;11.82;4.38;;;;;;;19.81;38.06;101451.78;16111780;19;131172;-38
2023/05/01 14:48:56;;;;;;;18.83;4.95;;;;;;;19.80;38.08;101458.44;16113768;19;131426;-39
2023/05/01 14:54:20;;;;;;;14.98;4.55;;;;;;;19.78;37.89;101458.66;16118681;19;129529;-39
2023/05/01 14:59:42;;;;;;;9.65;4.13;;;;;;;19.78;37.64;101461.44;16114895;19;130232;-38
2023/05/01 15:05:04;;;;;;;8.27;4.00;;;;;;;19.80;37.56;101453.72;16117572;19;130197;-39
2023/05/01 15:10:27;;;;;;;7.68;3.45;;;;;;;19.79;38.06;101456.75;16114774;19;129616;-38
2023/05/01 15:15:50;;;;;;;7.22;3.58;;;;;;;19.78;37.59;101463.38;16114312;19;131491;-38
2023/05/01 15:21:12;;;;;;;8.73;3.20;;;;;;;19.77;37.52;101472.78;16117844;19;131020;-39
2023/05/01 15:26:34;;;;;;;7.50;3.90;;;;;;;19.76;36.83;101476.66;16115319;19;134034;-39
2023/05/01 15:31:56;;;;;;;8.73;3.70;;;;;;;19.75;36.78;101477.72;16113712;19;129541;-38
2023/05/01 15:37:32;;;;;;;7.05;3.05;;;;;;;19.74;36.82;101484.38;16102860;19;129694;-39
2023/05/01 15:42:54;;;;;;;5.47;3.47;;;;;;;19.73;36.76;101488.22;16110270;19;133363;-38
2023/05/01 15:48:16;;;;;;;8.07;3.70;;;;;;;19.69;36.72;101485.91;16112934;19;130649;-39
2023/05/01 15:53:38;;;;;;;8.98;3.67;;;;;;;19.69;36.29;101494.25;16113550;19;130915;-39
2023/05/01 15:59:02;;;;;;;8.75;3.25;;;;;;;19.69;36.57;101488.69;16116472;19;129699;-39
2023/05/01 16:04:24;;;;;;;5.07;3.08;;;;;;;19.71;36.31;101501.50;16115166;19;130597;-40
2023/05/01 16:09:46;;;;;;;5.82;2.90;;;;;;;19.68;36.25;101503.69;16111811;19;130368;-41
2023/05/01 16:15:09;;;;;;;9.45;3.50;;;;;;;19.68;36.38;101514.78;16110743;19;130903;-40
2023/05/01 16:20:40;;;;;;;6.25;3.17;;;;;;;19.69;35.96;101519.22;16110350;19;131579;-40
2023/05/01 16:26:02;;;;;;;7.78;3.83;;;;;;;19.66;36.19;101525.28;16110548;19;129546;-41
2023/05/01 16:31:25;;;;;;;7.57;4.10;;;;;;;19.66;36.38;101536.38;16109227;19;130706;-40
2023/05/01 16:36:48;;;;;;;6.55;3.53;;;;;;;19.67;36.18;101535.31;16112957;19;131495;-42
2023/05/01 16:42:12;;;;;;;6.50;3.60;;;;;;;19.73;36.06;101549.31;16109927;19;130425;-40
2023/05/01 16:47:33;;;;;;;10.60;3.58;;;;;;;19.88;36.01;101558.03;16101459;19;131294;-40
2023/05/01 16:52:57;;;;;;;4.45;2.28;;;;;;;20.04;35.79;101556.50;16110872;19;129800;-41
2023/05/01 16:58:19;;;;;;;8.95;1.83;;;;;;;20.18;35.63;101562.69;16098734;19;130764;-41
2023/05/01 17:03:40;;;;;;;5.88;2.03;;;;;;;20.29;35.75;101556.28;16110358;19;130175;-42
2023/05/01 17:09:02;;;;;;;3.72;1.90;;;;;;;20.36;35.37;101547.81;16109667;19;130937;-39
2023/05/01 17:14:27;;;;;;;3.65;1.80;;;;;;;20.40;35.77;101548.16;16104349;19;130502;-39
2023/05/01 17:19:49;;;;;;;3.85;1.90;;;;;;;20.43;35.34;101558.78;16103318;19;130098;-39
2023/05/01 17:25:11;;;;;;;4.10;2.03;;;;;;;20.43;35.50;101556.84;16108543;19;130743;-39
2023/05/01 17:30:33;;;;;;;4.20;1.88;;;;;;;20.41;35.48;101567.34;16109839;19;130742;-39
2023/05/01 17:35:58;;;;;;;6.57;2.40;;;;;;;20.37;35.62;101574.47;16105648;19;131424;-38
2023/05/01 17:41:22;;;;;;;2.37;1.60;;;;;;;20.36;35.67;101588.63;16099831;19;131996;-39
2023/05/01 17:46:44;;;;;;;3.30;1.80;;;;;;;20.33;35.22;101591.88;16100817;19;130299;-39
2023/05/01 17:52:05;;;;;;;2.38;1.58;;;;;;;20.26;35.52;101587.31;16093920;19;130663;-41
2023/05/01 17:57:27;;;;;;;8.93;1.95;;;;;;;20.22;35.53;101599.97;16102862;19;129954;-38
2023/05/01 18:02:49;;;;;;;3.85;1.50;;;;;;;20.17;35.46;101605.44;16102203;19;130936;-39
2023/05/01 18:08:11;;;;;;;4.53;1.80;;;;;;;20.12;35.78;101608.91;16115395;19;131021;-39
2023/05/01 18:13:37;;;;;;;5.57;1.52;;;;;;;20.08;35.47;101624.38;16117686;19;130479;-39
2023/05/01 18:18:58;;;;;;;4.25;1.70;;;;;;;20.03;35.83;101626.19;16116196;19;130592;-39
2023/05/01 18:24:20;;;;;;;5.03;1.50;;;;;;;20.00;35.72;101638.59;16116167;19;129633;-39
2023/05/01 18:29:43;;;;;;;7.88;1.42;;;;;;;20.01;36.03;101651.41;16112178;19;130761;-39
2023/05/01 18:35:05;;;;;;;2.50;1.13;;;;;;;20.04;35.58;101645.38;16116822;19;130731;-41
2023/05/01 18:40:27;;;;;;;5.47;1.25;;;;;;;20.05;36.10;101662.91;16116923;19;131555;-40
2023/05/01 18:45:48;;;;;;;11.05;1.90;;;;;;;20.09;36.16;101664.97;16118930;19;129437;-40
2023/05/01 18:51:11;;;;;;;4.78;1.38;;;;;;;20.17;35.93;101666.53;16116702;19;129489;-40
2023/05/01 18:56:33;;;;;;;7.97;1.33;;;;;;;20.25;36.30;101680.09;16117270;19;129928;-39
2023/05/01 19:01:56;;;;;;;10.02;2.33;;;;;;;20.33;35.87;101680.81;16110615;19;129863;-39
2023/05/01 19:07:17;;;;;;;10.60;1.80;;;;;;;20.38;36.24;101689.28;16116637;19;129627;-39
2023/05/01 19:12:40;;;;;;;7.05;1.60;;;;;;;20.41;35.97;101689.63;16116268;19;130162;-38
2023/05/01 19:18:03;;;;;;;12.35;1.90;;;;;;;20.44;36.22;101693.88;16115067;19;130935;-39
2023/05/01 19:23:26;;;;;;;17.02;2.03;;;;;;;20.44;36.36;101702.19;16113185;19;133718;-40
2023/05/01 19:28:48;;;;;;;12.30;1.92;;;;;;;20.42;36.17;101712.75;16114811;19;130200;-39
2023/05/01 19:34:09;;;;;;;15.00;2.10;;;;;;;20.46;36.74;101727.81;16114825;19;130301;-39
2023/05/01 19:39:31;;;;;;;20.83;2.70;;;;;;;20.50;36.62;101731.84;16112626;19;129334;-39
2023/05/01 19:44:56;;;;;;;18.35;2.63;;;;;;;20.51;36.76;101754.91;16113503;19;130000;-41
2023/05/01 19:50:18;;;;;;;19.58;2.92;;;;;;;20.49;36.79;101752.38;16110812;19;132039;-39
2023/05/01 19:55:40;;;;;;;19.10;3.20;;;;;;;20.46;36.49;101755.63;16114539;19;131317;-40
2023/05/01 20:01:03;;;;;;;20.35;2.67;;;;;;;20.47;36.50;101759.28;16110433;19;130607;-39
2023/05/01 20:06:26;;;;;;;16.65;2.75;;;;;;;20.47;36.75;101774.00;16112076;19;131163;-39
2023/05/01 20:11:48;;;;;;;14.88;2.40;;;;;;;20.49;36.81;101777.38;16117494;19;130431;-39
2023/05/01 20:17:10;;;;;;;9.23;2.60;;;;;;;20.52;36.87;101784.41;16112686;19;130330;-40
2023/05/01 20:22:32;;;;;;;7.50;2.03;;;;;;;20.51;36.56;101791.91;16110416;19;130311;-42
2023/05/01 20:27:54;;;;;;;15.00;2.08;;;;;;;20.51;36.55;101807.72;16111862;19;130865;-39
2023/05/01 20:33:16;;;;;;;8.88;2.38;;;;;;;20.48;37.02;101803.50;16105191;19;131283;-43
2023/05/01 20:38:42;;;;;;;12.73;2.38;;;;;;;20.45;37.23;101810.38;16104741;19;130870;-40
2023/05/01 20:44:04;;;;;;;;;;;;;;;20.41;37.38;101816.66;16115963;19;131057;-40
2023/05/01 20:49:27;;;;;;;10.93;2.55;;;;;;;20.41;36.95;101816.66;16108609;19;131437;-39
2023/05/01 20:54:49;;;;;;;7.38;2.33;;;;;;;20.36;36.93;101817.38;16113184;19;130299;-39
2023/05/01 21:00:11;;;;;;;15.85;2.58;;;;;;;20.33;37.12;101814.19;16108525;19;130080;-39
2023/05/01 21:05:33;;;;;;;11.75;2.40;;;;;;;20.27;37.07;101815.97;16108034;19;129408;-39
2023/05/01 21:10:55;;;;;;;10.93;2.50;;;;;;;20.23;37.20;101825.91;16106133;19;129653;-39
2023/05/01 21:16:17;;;;;;;12.50;2.75;;;;;;;20.18;37.16;101829.38;16112743;19;129528;-39
2023/05/01 21:21:39;;;;;;;15.13;2.78;;;;;;;20.15;37.36;101840.94;16112821;19;130544;-39
2023/05/01 21:27:04;;;;;;;12.90;2.72;;;;;;;20.12;37.15;101846.97;16108215;19;130074;-41
2023/05/01 21:32:31;;;;;;;10.23;2.85;;;;;;;20.08;37.10;101851.28;16108666;19;129639;-39
2023/05/01 21:37:53;;;;;;;6.85;2.40;;;;;;;20.05;37.40;101851.78;16123763;19;129842;-39
2023/05/01 21:43:18;;;;;;;5.70;1.63;;;;;;;20.03;37.20;101851.16;16123595;19;129476;-39
2023/05/01 21:48:40;;;;;;;8.67;3.07;;;;;;;19.99;37.46;101859.09;16122597;19;130785;-40
2023/05/01 21:54:03;;;;;;;6.68;3.13;;;;;;;19.96;37.02;101851.22;16121034;19;131395;-39
2023/05/01 21:59:35;;;;;;;10.45;4.07;;;;;;;19.93;37.02;101863.66;16116739;19;132483;-41
2023/05/01 22:04:57;;;;;;;11.02;4.45;;;;;;;19.88;37.08;101869.03;16116946;19;130944;-39
2023/05/01 22:10:19;;;;;;;6.95;3.97;;;;;;;19.86;37.34;101871.19;16120259;19;129286;-39
2023/05/01 22:15:41;;;;;;;7.03;4.78;;;;;;;19.85;37.38;101869.50;16111482;19;130836;-40
2023/05/01 22:21:04;;;;;;;8.93;4.13;;;;;;;19.83;37.13;101888.31;16118744;19;130073;-39
2023/05/01 22:26:25;;;;;;;6.30;3.88;;;;;;;19.81;37.43;101885.78;16116600;19;131377;-39
2023/05/01 22:31:47;;;;;;;7.35;3.97;;;;;;;19.80;37.10;101874.91;16116315;19;131303;-39
2023/05/01 22:37:09;;;;;;;7.80;3.30;;;;;;;19.79;37.32;101887.09;16115801;19;131589;-41
2023/05/01 22:42:31;;;;;;;5.00;2.88;;;;;;;19.78;37.29;101890.94;16113788;19;131254;-42
2023/05/01 22:47:53;;;;;;;6.18;3.50;;;;;;;19.76;37.34;101904.19;16116900;19;132034;-39
2023/05/01 22:53:15;;;;;;;4.63;2.80;;;;;;;19.76;37.10;101906.97;16115676;19;130165;-41
2023/05/01 22:58:37;;;;;;;3.22;2.00;;;;;;;19.76;36.99;101909.75;16113017;19;131290;-39
2023/05/01 23:03:59;;;;;;;4.10;2.33;;;;;;;19.73;37.12;101907.44;16107852;19;131063;-39
2023/05/01 23:09:21;;;;;;;3.38;2.15;;;;;;;19.72;37.20;101920.47;16113423;19;129487;-39
2023/05/01 23:14:45;;;;;;;4.88;2.10;;;;;;;19.71;37.07;101927.09;16114885;19;129866;-40
2023/05/01 23:20:11;;;;;;;5.22;1.98;;;;;;;19.69;37.24;101926.47;16113757;19;130312;-39
2023/05/01 23:25:33;;;;;;;2.45;1.40;;;;;;;19.67;37.47;101929.50;16113607;19;131589;-40
2023/05/01 23:30:58;;;;;;;1.92;1.60;;;;;;;19.67;37.51;101928.63;16116498;19;129695;-40
2023/05/01 23:36:21;;;;;;;3.00;1.30;;;;;;;19.64;37.19;101929.94;16109744;19;130385;-39
2023/05/01 23:41:44;;;;;;;1.83;1.17;;;;;;;19.63;37.08;101938.50;16105699;19;132090;-39
2023/05/01 23:47:05;;;;;;;4.25;1.92;;;;;;;19.62;37.16;101945.97;16111115;19;130782;-39
2023/05/01 23:52:28;;;;;;;4.00;2.03;;;;;;;19.60;37.55;101952.84;16112505;19;130445;-39
2023/05/01 23:57:50;;;;;;;3.17;1.73;;;;;;;19.58;37.34;101953.06;16108033;19;130986;-40
